Time;durP1;ratioP1;P1;durP2;ratioP2;P2;SDS_P1;SDS_P2;PMS_P1;PMS_P2;Temp;Humidity;BMP_temperature;BMP_pressure;BME280_temperature;BME280_humidity;BME280_pressure;Samples;Min_cycle;Max_cycle;Signal;HPM_P1;HPM_P2
2022/02/22 00:02:16;;;;;;;82.23;30.63;;;6.70;99.90;;;;;;4884928;29;20245;-83
2022/02/22 00:04:43;;;;;;;94.68;41.22;;;6.80;99.90;;;;;;4884532;29;20407;-83
2022/02/22 00:07:10;;;;;;;85.57;30.48;;;6.80;99.90;;;;;;4884651;29;20746;-83
2022/02/22 00:09:36;;;;;;;84.90;29.33;;;6.80;99.90;;;;;;4885529;29;20258;-83
2022/02/22 00:12:02;;;;;;;80.90;22.67;;;6.80;99.90;;;;;;4884537;29;20259;-83
2022/02/22 00:14:30;;;;;;;89.13;30.27;;;6.80;99.90;;;;;;4884819;29;20185;-83
2022/02/22 00:16:56;;;;;;;80.07;22.00;;;6.80;99.90;;;;;;4884433;29;20201;-83
2022/02/22 00:19:27;;;;;;;97.63;28.73;;;6.80;99.90;;;;;;4885165;29;20175;-83
2022/02/22 00:21:54;;;;;;;80.50;27.27;;;6.80;99.90;;;;;;4884795;29;20175;-83
2022/02/22 00:24:21;;;;;;;83.65;26.88;;;6.80;99.90;;;;;;4884458;29;20167;-83
2022/02/22 00:26:46;;;;;;;90.72;29.10;;;6.80;99.90;;;;;;4883273;29;20195;-83
2022/02/22 00:29:12;;;;;;;77.97;24.73;;;6.70;99.90;;;;;;4884786;29;20176;-82
2022/02/22 00:31:38;;;;;;;87.88;26.33;;;6.70;99.90;;;;;;4884471;29;20419;-82
2022/02/22 00:34:06;;;;;;;80.70;27.27;;;6.70;99.90;;;;;;4884093;29;20543;-83
2022/02/22 00:36:33;;;;;;;85.95;26.88;;;6.70;99.90;;;;;;4885900;29;20202;-83
2022/02/22 00:39:03;;;;;;;77.60;25.40;;;6.70;99.90;;;;;;4884873;29;20629;-82
2022/02/22 00:41:29;;;;;;;94.93;23.45;;;6.70;99.90;;;;;;4883655;29;20635;-83
2022/02/22 00:43:56;;;;;;;102.33;48.50;;;6.70;99.90;;;;;;4884132;29;20170;-82
2022/02/22 00:46:21;;;;;;;82.45;24.65;;;6.60;99.90;;;;;;4882731;29;20199;-83
2022/02/22 00:48:47;;;;;;;82.37;24.87;;;6.70;99.90;;;;;;4884157;29;20579;-83
2022/02/22 00:51:13;;;;;;;80.37;24.67;;;6.70;99.90;;;;;;4883971;29;20572;-82
2022/02/22 00:53:39;;;;;;;90.07;25.27;;;6.70;99.90;;;;;;4882570;29;20178;-83
2022/02/22 00:56:04;;;;;;;88.43;25.60;;;6.70;99.90;;;;;;4883869;29;20194;-83
2022/02/22 00:58:30;;;;;;;85.53;26.40;;;6.70;99.90;;;;;;4883718;29;20562;-83
2022/02/22 01:00:56;;;;;;;83.90;27.87;;;6.70;99.90;;;;;;4883882;29;20220;-83
2022/02/22 01:03:22;;;;;;;78.40;21.43;;;6.70;99.90;;;;;;4882540;29;20250;-83
2022/02/22 01:05:47;;;;;;;86.50;23.87;;;6.60;99.90;;;;;;4885515;29;20491;-83
2022/02/22 01:08:13;;;;;;;87.97;24.23;;;6.60;99.90;;;;;;4883671;29;20174;-83
2022/02/22 01:10:39;;;;;;;91.17;26.83;;;6.60;99.90;;;;;;4884294;29;20181;-83
2022/02/22 01:13:05;;;;;;;88.47;24.07;;;6.60;99.90;;;;;;4883552;29;20175;-83
2022/02/22 01:15:30;;;;;;;103.70;67.63;;;6.60;99.90;;;;;;4884165;29;20198;-83
2022/02/22 01:17:56;;;;;;;93.70;42.47;;;6.60;99.90;;;;;;4883808;29;20198;-83
2022/02/22 01:20:22;;;;;;;102.80;78.53;;;6.60;99.90;;;;;;4883440;29;20969;-83
2022/02/22 01:22:52;;;;;;;110.17;90.17;;;6.50;99.90;;;;;;4884109;29;20800;-83
2022/02/22 01:25:18;;;;;;;104.05;66.97;;;6.50;99.90;;;;;;4882311;29;20277;-83
2022/02/22 01:27:44;;;;;;;104.68;73.30;;;6.50;99.90;;;;;;4883306;29;20179;-83
2022/02/22 01:30:10;;;;;;;117.40;84.67;;;6.50;99.90;;;;;;4882178;29;20245;-83
2022/02/22 01:32:36;;;;;;;100.20;60.47;;;6.50;99.90;;;;;;4883320;29;20467;-83
2022/02/22 01:35:02;;;;;;;109.30;83.38;;;6.50;99.90;;;;;;4882930;29;20916;-83
2022/02/22 01:37:28;;;;;;;103.80;81.90;;;6.40;99.90;;;;;;4882580;29;20198;-83
2022/02/22 01:39:53;;;;;;;104.97;77.47;;;6.40;99.90;;;;;;4883326;29;20202;-82
2022/02/22 01:42:20;;;;;;;104.60;61.00;;;6.40;99.90;;;;;;4882885;29;20658;-82
2022/02/22 01:44:47;;;;;;;109.22;96.38;;;6.30;99.90;;;;;;4881980;29;20173;-82
2022/02/22 01:47:16;;;;;;;115.03;92.93;;;6.30;99.90;;;;;;4881656;29;20190;-83
2022/02/22 01:49:42;;;;;;;106.03;90.95;;;6.30;99.90;;;;;;4883118;29;20219;-83
2022/02/22 01:52:08;;;;;;;108.60;83.63;;;6.30;99.90;;;;;;4882839;29;20534;-83
2022/02/22 01:54:35;;;;;;;110.18;97.90;;;6.30;99.90;;;;;;4883146;29;20171;-82
2022/02/22 01:57:01;;;;;;;110.03;98.20;;;6.30;99.90;;;;;;4882582;29;20198;-83
2022/02/22 01:59:26;;;;;;;109.87;91.00;;;6.20;99.90;;;;;;4882779;29;20292;-82
2022/02/22 02:01:52;;;;;;;100.73;72.13;;;6.20;99.90;;;;;;4881215;29;20443;-83
2022/02/22 02:04:18;;;;;;;116.50;104.10;;;6.20;99.90;;;;;;4881659;29;20167;-83
2022/02/22 02:06:44;;;;;;;115.37;94.60;;;6.20;99.90;;;;;;4882259;29;20201;-82
2022/02/22 02:09:10;;;;;;;111.50;90.30;;;6.20;99.90;;;;;;4882780;29;20167;-83
2022/02/22 02:11:49;;;;;;;109.75;85.28;;;6.20;99.90;;;;;;4881768;29;20584;-83
2022/02/22 02:14:16;;;;;;;107.85;94.40;;;6.20;99.90;;;;;;4883067;29;20155;-83
2022/02/22 02:16:45;;;;;;;100.28;65.35;;;6.20;99.90;;;;;;4882550;29;20195;-83
2022/02/22 02:19:12;;;;;;;110.88;66.63;;;6.20;99.90;;;;;;4881110;29;20173;-83
2022/02/22 02:21:40;;;;;;;100.68;61.70;;;6.20;99.90;;;;;;4882633;29;20225;-83
2022/02/22 02:24:11;;;;;;;104.47;73.45;;;6.30;99.90;;;;;;4882453;29;20536;-83
2022/02/22 02:26:37;;;;;;;101.72;52.25;;;6.20;99.90;;;;;;4881959;29;20233;-83
2022/02/22 02:29:08;;;;;;;107.22;50.78;;;6.20;99.90;;;;;;4881266;29;20528;-82
2022/02/22 02:31:38;;;;;;;93.38;48.97;;;6.20;99.90;;;;;;4882505;29;20234;-82
2022/02/22 02:34:05;;;;;;;103.05;70.60;;;6.30;99.90;;;;;;4882622;29;20169;-83
2022/02/22 02:36:35;;;;;;;96.32;69.90;;;6.20;99.90;;;;;;4882164;29;20281;-82
2022/02/22 02:39:03;;;;;;;92.05;69.97;;;6.30;99.90;;;;;;4882673;29;20155;-83
2022/02/22 02:41:29;;;;;;;103.45;84.70;;;6.20;99.90;;;;;;4882057;29;20535;-82
2022/02/22 02:44:07;;;;;;;103.00;66.57;;;6.10;99.90;;;;;;4882672;29;20181;-83
2022/02/22 02:46:33;;;;;;;112.75;80.38;;;6.20;99.90;;;;;;4881895;29;20186;-83
2022/02/22 02:48:59;;;;;;;109.00;72.07;;;6.20;99.90;;;;;;4880936;29;20647;-83
2022/02/22 02:51:26;;;;;;;103.47;54.67;;;6.20;99.90;;;;;;4885127;29;20230;-82
2022/02/22 02:53:53;;;;;;;97.65;55.95;;;6.20;99.90;;;;;;4886159;29;20194;-82
2022/02/22 02:56:25;;;;;;;92.20;41.17;;;6.10;99.90;;;;;;4885549;29;20562;-83
2022/02/22 02:58:52;;;;;;;92.30;42.97;;;6.10;99.90;;;;;;4885766;29;20143;-83
2022/02/22 03:01:19;;;;;;;88.80;49.05;;;6.10;99.90;;;;;;4886276;29;20179;-82
2022/02/22 03:03:45;;;;;;;88.63;38.22;;;6.20;99.90;;;;;;4884951;29;20646;-83
2022/02/22 03:06:10;;;;;;;95.20;41.53;;;6.10;99.90;;;;;;4886318;29;20210;-83
2022/02/22 03:08:36;;;;;;;89.47;39.50;;;6.10;99.90;;;;;;4886131;29;20178;-82
2022/02/22 03:11:02;;;;;;;98.03;50.47;;;6.10;99.90;;;;;;4886172;29;20186;-82
2022/02/22 03:13:27;;;;;;;85.97;48.10;;;6.00;99.90;;;;;;4885877;29;20182;-82
2022/02/22 03:15:53;;;;;;;93.23;55.33;;;6.10;99.90;;;;;;4885674;29;20199;-83
2022/02/22 03:18:18;;;;;;;105.33;50.80;;;6.00;99.90;;;;;;4885702;29;20190;-83
2022/02/22 03:20:44;;;;;;;91.97;56.40;;;6.00;99.90;;;;;;4883952;29;20178;-83
2022/02/22 03:23:10;;;;;;;101.57;53.93;;;6.00;99.90;;;;;;4885610;29;20171;-83
2022/02/22 03:25:35;;;;;;;94.53;56.23;;;5.90;99.90;;;;;;4885551;29;20186;-82
2022/02/22 03:28:05;;;;;;;86.20;45.37;;;5.90;99.90;;;;;;4885809;29;20596;-82
2022/02/22 03:30:32;;;;;;;98.18;56.40;;;5.90;99.90;;;;;;4885702;29;20166;-83
2022/02/22 03:32:58;;;;;;;106.57;53.28;;;5.90;99.90;;;;;;4884049;29;20198;-82
2022/02/22 03:35:24;;;;;;;97.75;70.82;;;5.90;99.90;;;;;;4885241;29;20722;-82
2022/02/22 03:37:50;;;;;;;99.97;72.93;;;5.80;99.90;;;;;;4885577;29;20261;-82
2022/02/22 03:40:16;;;;;;;105.07;72.47;;;5.80;99.90;;;;;;4885085;29;20418;-82
2022/02/22 03:42:43;;;;;;;118.05;77.93;;;5.70;99.90;;;;;;4884156;29;20178;-82
2022/02/22 03:45:11;;;;;;;96.65;55.97;;;5.70;99.90;;;;;;4884636;29;20167;-83
2022/02/22 03:47:37;;;;;;;89.82;54.25;;;5.60;99.90;;;;;;4885227;29;20171;-83
2022/02/22 03:50:08;;;;;;;89.20;47.92;;;5.60;99.90;;;;;;4885382;29;20170;-83
2022/02/22 03:52:35;;;;;;;100.72;40.92;;;5.60;99.90;;;;;;4884975;29;20635;-82
2022/02/22 03:55:01;;;;;;;92.15;40.97;;;5.60;99.90;;;;;;4885093;29;20174;-84
2022/02/22 03:57:27;;;;;;;95.03;36.85;;;5.60;99.90;;;;;;4885037;29;20219;-83
2022/02/22 03:59:52;;;;;;;85.57;40.77;;;5.60;99.90;;;;;;4893869;29;20178;-84
2022/02/22 04:02:18;;;;;;;93.57;38.07;;;5.60;99.90;;;;;;4892324;29;20177;-84
2022/02/22 04:04:44;;;;;;;90.47;39.20;;;5.60;99.90;;;;;;4883507;29;20411;-83
2022/02/22 04:07:10;;;;;;;78.00;30.47;;;5.60;99.90;;;;;;4884273;29;20190;-83
2022/02/22 04:09:36;;;;;;;94.03;33.85;;;5.60;99.90;;;;;;4884420;29;20167;-82
2022/02/22 04:12:02;;;;;;;85.47;34.17;;;5.60;99.90;;;;;;4885689;29;20181;-82
2022/02/22 04:14:28;;;;;;;79.80;38.15;;;5.50;99.90;;;;;;4885217;29;20167;-83
2022/02/22 04:16:54;;;;;;;84.07;34.40;;;5.50;99.90;;;;;;4884933;29;20199;-83
2022/02/22 04:19:23;;;;;;;96.33;37.17;;;5.50;99.90;;;;;;4885182;29;20619;-83
2022/02/22 04:21:51;;;;;;;87.00;33.58;;;5.60;99.90;;;;;;4884393;29;20163;-82
2022/02/22 04:24:17;;;;;;;94.03;33.42;;;5.60;99.90;;;;;;4884290;29;20223;-83
2022/02/22 04:26:43;;;;;;;91.67;30.07;;;5.60;99.90;;;;;;4885142;29;20187;-83
2022/02/22 04:29:08;;;;;;;85.27;34.73;;;5.50;99.90;;;;;;4884662;29;20182;-82
2022/02/22 04:31:38;;;;;;;85.37;34.87;;;5.50;99.90;;;;;;4882962;29;20189;-82
2022/02/22 04:34:05;;;;;;;91.25;34.05;;;5.50;99.90;;;;;;4885032;29;20177;-82
2022/02/22 04:36:31;;;;;;;90.80;32.50;;;5.50;99.90;;;;;;4882891;29;20227;-83
2022/02/22 04:38:57;;;;;;;82.13;32.83;;;5.40;99.90;;;;;;4884383;29;20167;-82
2022/02/22 04:41:23;;;;;;;87.77;44.13;;;5.40;99.90;;;;;;4883847;29;20439;-83
2022/02/22 04:43:48;;;;;;;91.07;37.67;;;5.40;99.90;;;;;;4884307;29;20431;-82
2022/02/22 04:46:14;;;;;;;89.53;40.83;;;5.40;99.90;;;;;;4883794;29;20218;-83
2022/02/22 04:48:40;;;;;;;84.57;36.27;;;5.40;99.90;;;;;;4883929;29;20170;-83
2022/02/22 04:51:06;;;;;;;89.00;39.70;;;5.40;99.90;;;;;;4884504;29;20517;-82
2022/02/22 04:53:31;;;;;;;83.47;33.00;;;5.40;99.90;;;;;;4884157;29;20411;-82
2022/02/22 04:56:00;;;;;;;93.10;36.30;;;5.40;99.90;;;;;;4883858;29;20218;-83
2022/02/22 04:58:26;;;;;;;86.07;39.83;;;5.40;99.90;;;;;;4883497;29;20305;-83
2022/02/22 05:01:03;;;;;;;85.60;35.67;;;5.40;99.90;;;;;;4928896;23;20234;-81
2022/02/22 05:04:03;;;;;;;87.70;28.23;;;5.40;99.90;;;;;;4884701;29;20249;-81
2022/02/22 05:06:52;;;;;;;91.65;34.42;;;5.40;99.90;;;;;;4882834;29;20202;-82
2022/02/22 05:09:37;;;;;;;89.97;29.95;;;5.40;99.90;;;;;;4883032;29;20265;-82
2022/02/22 05:12:43;;;;;;;90.97;34.22;;;5.40;99.90;;;;;;4883541;29;20143;-81
2022/02/22 05:15:12;;;;;;;81.43;29.80;;;5.40;99.90;;;;;;4874311;29;20178;-82
2022/02/22 05:17:41;;;;;;;93.78;38.22;;;5.40;99.90;;;;;;4882799;29;20210;-82
2022/02/22 05:20:35;;;;;;;90.35;32.90;;;5.30;99.90;;;;;;4884350;29;20639;-82
2022/02/22 05:23:12;;;;;;;97.28;33.28;;;5.30;99.90;;;;;;4881943;29;20655;-81
2022/02/22 05:26:11;;;;;;;85.68;30.20;;;5.30;99.90;;;;;;4882771;29;20193;-82
2022/02/22 05:28:44;;;;;;;83.18;32.97;;;5.40;99.90;;;;;;4879486;29;20194;-82
2022/02/22 05:31:16;;;;;;;83.40;28.48;;;5.40;99.90;;;;;;4883986;29;20362;-82
2022/02/22 05:34:23;;;;;;;89.28;33.55;;;5.30;99.90;;;;;;4884056;29;20223;-81
2022/02/22 05:37:34;;;;;;;99.03;23.80;;;5.30;99.90;;;;;;4880602;29;20266;-81
2022/02/22 05:40:13;;;;;;;88.13;29.23;;;5.20;99.90;;;;;;4828986;29;20195;-81
2022/02/22 05:48:57;;;;;;;80.85;28.13;;;5.20;99.90;;;;;;4852104;29;20182;-81
2022/02/22 05:51:47;;;;;;;;;;;;;;;;;;;;;
2022/02/22 05:54:46;;;;;;;87.85;32.65;;;5.20;99.90;;;;;;4883682;29;20257;-82
2022/02/22 05:57:44;;;;;;;88.63;31.23;;;5.20;99.90;;;;;;4879337;29;20277;-82
2022/02/22 06:00:33;;;;;;;84.55;35.40;;;5.20;99.90;;;;;;4844531;29;20592;-82
2022/02/22 06:03:03;;;;;;;87.05;29.92;;;5.10;99.90;;;;;;4826566;29;20185;-82
2022/02/22 06:05:52;;;;;;;86.05;33.15;;;5.10;99.90;;;;;;4810661;29;20712;-81
2022/02/22 06:08:30;;;;;;;83.00;31.40;;;5.10;99.90;;;;;;4826171;29;20185;-82
2022/02/22 06:11:02;;;;;;;82.90;33.80;;;5.00;99.90;;;;;;4829183;29;20188;-82
2022/02/22 06:13:54;;;;;;;;;;;;;;;;;;;;;
2022/02/22 06:16:48;;;;;;;83.57;30.17;;;5.00;99.90;;;;;;4845041;29;20225;-82
2022/02/22 06:19:27;;;;;;;79.90;28.35;;;5.00;99.90;;;;;;4843753;29;20168;-82
2022/02/22 06:22:04;;;;;;;81.70;30.48;;;5.00;99.90;;;;;;4830004;29;20613;-82
2022/02/22 06:25:05;;;;;;;87.30;31.48;;;5.00;99.90;;;;;;4828802;29;20551;-82
2022/02/22 06:28:03;;;;;;;83.57;28.45;;;5.00;99.90;;;;;;4871249;29;20600;-82
2022/02/22 06:31:13;;;;;;;86.43;34.63;;;5.10;99.90;;;;;;4883390;29;20616;-82
2022/02/22 06:34:07;;;;;;;;;;;;;;;;;;;;;
2022/02/22 06:37:16;;;;;;;84.90;34.17;;;5.10;99.90;;;;;;4882709;29;20273;-82
2022/02/22 06:40:10;;;;;;;;;;;;;;;;;;;;;
2022/02/22 06:43:11;;;;;;;83.72;29.45;;;5.10;99.90;;;;;;4882944;29;20232;-82
2022/02/22 06:45:42;;;;;;;94.18;35.75;;;5.00;99.90;;;;;;4881609;29;20205;-82
2022/02/22 06:48:39;;;;;;;85.30;37.13;;;5.00;99.90;;;;;;4883038;29;20238;-82
2022/02/22 06:51:19;;;;;;;79.97;31.20;;;5.00;99.90;;;;;;4880697;29;20595;-82
2022/02/22 06:53:51;;;;;;;87.45;30.65;;;5.00;99.90;;;;;;4882940;29;20233;-82
2022/02/22 06:56:22;;;;;;;85.20;29.58;;;5.00;99.90;;;;;;4883290;29;20190;-82
2022/02/22 06:59:16;;;;;;;94.18;33.20;;;5.00;99.90;;;;;;4883036;29;20208;-83
2022/02/22 07:01:55;;;;;;;78.78;27.17;;;5.00;99.90;;;;;;4882787;29;20190;-82
2022/02/22 07:04:26;;;;;;;90.63;27.80;;;5.00;99.90;;;;;;4882923;29;20211;-82
2022/02/22 07:06:59;;;;;;;81.65;30.25;;;5.10;99.90;;;;;;4883278;29;20197;-82
2022/02/22 07:09:25;;;;;;;89.47;35.05;;;5.00;99.90;;;;;;4881942;29;20179;-82
2022/02/22 07:11:53;;;;;;;81.57;28.90;;;5.00;99.90;;;;;;4883199;29;20257;-82
2022/02/22 07:14:19;;;;;;;93.93;38.03;;;5.00;99.90;;;;;;4881997;29;20178;-83
2022/02/22 07:16:44;;;;;;;87.07;35.10;;;5.00;99.90;;;;;;4883209;29;20311;-83
2022/02/22 07:19:10;;;;;;;86.23;35.03;;;5.00;99.90;;;;;;4882947;29;20646;-83
2022/02/22 07:21:44;;;;;;;86.03;37.63;;;5.00;99.90;;;;;;4883227;29;20197;-83
2022/02/22 07:24:12;;;;;;;90.13;37.80;;;5.00;99.90;;;;;;4881385;29;20199;-83
2022/02/22 07:26:38;;;;;;;84.03;35.13;;;5.00;99.90;;;;;;4882539;29;20193;-83
2022/02/22 07:29:04;;;;;;;93.67;32.40;;;5.10;99.90;;;;;;4883508;29;20222;-82
2022/02/22 07:31:33;;;;;;;82.65;32.38;;;5.10;99.90;;;;;;4882955;29;20643;-82
2022/02/22 07:33:59;;;;;;;81.72;34.22;;;5.10;99.90;;;;;;4883593;29;20171;-82
2022/02/22 07:36:25;;;;;;;87.65;35.30;;;5.20;99.90;;;;;;4883912;29;20190;-82
2022/02/22 07:38:51;;;;;;;83.73;33.13;;;5.20;99.90;;;;;;4886753;29;20163;-82
2022/02/22 07:41:22;;;;;;;81.93;30.47;;;5.30;99.90;;;;;;4885092;29;20167;-82
2022/02/22 07:43:50;;;;;;;79.40;28.92;;;5.40;99.90;;;;;;4885158;29;20223;-83
2022/02/22 07:46:19;;;;;;;89.20;34.15;;;5.60;99.90;;;;;;4884586;29;20225;-82
2022/02/22 07:48:46;;;;;;;91.05;37.25;;;5.60;99.90;;;;;;4886088;29;20175;-82
2022/02/22 07:51:16;;;;;;;93.78;33.85;;;5.70;99.90;;;;;;4885914;29;20673;-82
2022/02/22 07:53:49;;;;;;;87.13;31.70;;;5.80;99.90;;;;;;4886079;29;20182;-82
2022/02/22 07:56:16;;;;;;;92.75;32.65;;;5.90;99.90;;;;;;4885762;29;20223;-82
2022/02/22 07:58:42;;;;;;;78.50;27.20;;;5.90;99.90;;;;;;4884708;29;20574;-82
2022/02/22 08:01:15;;;;;;;98.38;26.42;;;5.90;99.90;;;;;;4884038;29;20258;-80
2022/02/22 08:03:44;;;;;;;93.30;31.13;;;6.00;99.90;;;;;;4885556;29;20234;-82
2022/02/22 08:06:17;;;;;;;83.68;25.67;;;6.10;99.90;;;;;;4884701;29;20217;-82
2022/02/22 08:08:43;;;;;;;77.22;26.95;;;6.10;99.90;;;;;;4886689;29;20210;-82
2022/02/22 08:11:19;;;;;;;86.15;26.63;;;6.20;99.90;;;;;;4885781;29;20179;-82
2022/02/22 08:13:52;;;;;;;86.20;27.67;;;6.20;99.90;;;;;;4885890;29;20182;-82
2022/02/22 08:16:18;;;;;;;78.72;25.75;;;6.30;99.90;;;;;;4884317;29;20190;-82
2022/02/22 08:18:46;;;;;;;77.67;26.77;;;6.30;99.90;;;;;;4885456;29;20254;-82
2022/02/22 08:21:12;;;;;;;73.85;23.27;;;6.30;99.90;;;;;;4884528;29;20199;-82
2022/02/22 08:23:40;;;;;;;84.13;27.20;;;6.40;99.90;;;;;;4884696;29;20170;-82
2022/02/22 08:26:09;;;;;;;87.30;24.92;;;6.40;99.90;;;;;;4883586;29;20198;-82
2022/02/22 08:28:35;;;;;;;88.25;28.05;;;6.40;99.90;;;;;;4884828;29;20174;-82
2022/02/22 08:31:01;;;;;;;84.87;32.73;;;6.50;99.90;;;;;;4885748;29;20171;-82
2022/02/22 08:33:26;;;;;;;86.13;34.43;;;6.60;99.90;;;;;;4885900;29;20535;-82
2022/02/22 08:35:53;;;;;;;86.03;32.87;;;6.60;99.90;;;;;;4883912;29;20190;-82
2022/02/22 08:38:18;;;;;;;84.45;33.22;;;6.60;99.90;;;;;;4886086;29;20262;-82
2022/02/22 08:40:45;;;;;;;84.70;34.80;;;6.70;99.90;;;;;;4885794;29;20202;-82
2022/02/22 08:43:13;;;;;;;82.07;34.60;;;6.80;99.90;;;;;;4885593;29;20261;-83
2022/02/22 08:45:39;;;;;;;85.68;46.00;;;6.80;99.90;;;;;;4885371;29;20214;-82
2022/02/22 08:48:05;;;;;;;92.18;46.67;;;7.00;99.90;;;;;;4884678;29;20257;-82
2022/02/22 08:50:31;;;;;;;86.23;50.23;;;7.10;99.90;;;;;;4885266;29;20215;-82
2022/02/22 08:52:57;;;;;;;91.63;58.70;;;7.10;99.90;;;;;;4884673;29;20411;-83
2022/02/22 08:55:23;;;;;;;92.83;52.47;;;7.20;99.90;;;;;;4885741;29;20195;-82
2022/02/22 08:57:49;;;;;;;86.75;52.28;;;7.20;99.90;;;;;;4884830;29;20214;-83
2022/02/22 09:00:15;;;;;;;101.75;77.35;;;7.30;99.90;;;;;;4884957;29;20182;-82
2022/02/22 09:02:41;;;;;;;97.53;71.13;;;7.50;99.90;;;;;;4883713;29;20170;-82
2022/02/22 09:05:08;;;;;;;88.23;56.83;;;7.60;99.90;;;;;;4883662;29;20539;-82
2022/02/22 09:07:34;;;;;;;89.70;62.28;;;7.80;99.90;;;;;;4885363;29;20171;-82
2022/02/22 09:10:03;;;;;;;80.67;35.77;;;7.70;99.90;;;;;;4883714;29;20185;-83
2022/02/22 09:12:29;;;;;;;73.10;22.98;;;7.80;99.90;;;;;;4884626;29;20415;-83
2022/02/22 09:14:55;;;;;;;82.43;22.00;;;8.00;99.90;;;;;;4885117;29;20170;-82
2022/02/22 09:17:22;;;;;;;79.60;24.65;;;8.00;99.90;;;;;;4884589;29;20198;-82
2022/02/22 09:19:47;;;;;;;80.50;21.27;;;8.00;99.90;;;;;;4885154;29;20195;-83
2022/02/22 09:22:13;;;;;;;80.43;14.40;;;8.10;99.90;;;;;;4884677;29;20218;-83
2022/02/22 09:24:39;;;;;;;79.03;12.87;;;8.20;99.90;;;;;;4885002;29;20230;-82
2022/02/22 09:27:04;;;;;;;75.80;11.80;;;8.20;99.90;;;;;;4884752;29;20193;-82
2022/02/22 09:29:30;;;;;;;73.80;13.10;;;8.30;99.90;;;;;;4883361;29;20207;-83
2022/02/22 09:31:56;;;;;;;74.53;11.37;;;8.30;99.90;;;;;;4883094;29;20183;-83
2022/02/22 09:34:22;;;;;;;74.13;11.07;;;8.40;99.90;;;;;;4884707;29;20543;-83
2022/02/22 09:36:48;;;;;;;73.60;11.40;;;8.30;99.90;;;;;;4884434;29;20237;-83
2022/02/22 09:39:14;;;;;;;70.90;12.35;;;8.30;99.90;;;;;;4884389;29;20467;-83
2022/02/22 09:41:40;;;;;;;81.22;9.98;;;8.30;99.90;;;;;;4884417;29;20253;-83
2022/02/22 09:44:06;;;;;;;69.05;9.20;;;8.30;99.90;;;;;;4884233;29;20245;-83
2022/02/22 09:46:32;;;;;;;70.57;10.53;;;8.30;99.90;;;;;;4884380;29;20698;-83
2022/02/22 09:48:58;;;;;;;70.32;10.50;;;8.50;99.90;;;;;;4884507;29;20535;-82
2022/02/22 09:51:25;;;;;;;69.43;9.90;;;8.50;99.90;;;;;;4884556;29;20205;-83
2022/02/22 09:53:51;;;;;;;73.90;9.30;;;8.60;99.90;;;;;;4884565;29;20261;-82
2022/02/22 09:56:16;;;;;;;73.03;9.37;;;8.60;99.90;;;;;;4884227;29;20218;-83
2022/02/22 09:58:42;;;;;;;75.40;8.80;;;8.50;99.90;;;;;;4884088;29;20201;-82
2022/02/22 10:01:08;;;;;;;74.80;8.70;;;8.50;99.90;;;;;;4882300;29;20262;-83
2022/02/22 10:03:33;;;;;;;70.43;8.20;;;8.70;99.90;;;;;;4883189;29;20655;-82
2022/02/22 10:06:01;;;;;;;70.30;8.93;;;8.90;99.90;;;;;;4883865;29;20226;-82
2022/02/22 10:08:30;;;;;;;71.43;8.40;;;8.80;99.90;;;;;;4883252;29;20178;-82
2022/02/22 10:11:01;;;;;;;72.72;9.23;;;9.00;99.90;;;;;;4882677;29;20265;-82
2022/02/22 10:13:27;;;;;;;72.95;8.73;;;9.00;98.90;;;;;;4884024;29;20175;-83
2022/02/22 10:15:53;;;;;;;70.10;8.37;;;9.00;98.70;;;;;;4883608;29;20697;-83
2022/02/22 10:18:19;;;;;;;76.53;12.00;;;9.10;99.10;;;;;;4884255;29;20439;-83
2022/02/22 10:20:48;;;;;;;66.93;7.70;;;9.20;97.10;;;;;;4882460;29;20178;-82
2022/02/22 10:23:27;;;;;;;74.03;9.27;;;9.20;93.80;;;;;;4883448;29;20170;-83
2022/02/22 10:25:59;;;;;;;71.22;8.75;;;9.10;93.40;;;;;;4884172;29;20194;-83
2022/02/22 10:28:25;;;;;;;70.05;6.40;;;9.10;96.00;;;;;;4882409;29;20253;-83
2022/02/22 10:30:53;;;;;;;70.65;6.97;;;9.20;92.60;;;;;;4882423;29;20174;-82
2022/02/22 10:33:23;;;;;;;72.35;6.35;;;9.20;94.10;;;;;;4883680;29;20214;-82
2022/02/22 10:35:51;;;;;;;71.80;7.47;;;9.30;95.70;;;;;;4882258;29;20195;-82
2022/02/22 10:38:20;;;;;;;70.40;7.50;;;9.30;95.00;;;;;;4883945;29;20246;-83
2022/02/22 10:41:05;;;;;;;70.38;10.23;;;9.50;96.20;;;;;;4883889;29;20651;-83
2022/02/22 10:43:34;;;;;;;75.20;12.43;;;9.70;93.90;;;;;;4883647;29;20163;-83
2022/02/22 10:46:04;;;;;;;72.47;10.75;;;9.80;92.40;;;;;;4882180;29;20227;-83
2022/02/22 10:48:37;;;;;;;70.72;10.82;;;9.80;93.50;;;;;;4884057;29;20173;-83
2022/02/22 10:51:06;;;;;;;74.15;11.18;;;9.80;94.30;;;;;;4883250;29;20230;-83
2022/02/22 10:53:42;;;;;;;70.47;10.45;;;9.80;92.50;;;;;;4883740;29;20174;-83
2022/02/22 10:56:11;;;;;;;79.72;12.40;;;9.80;95.10;;;;;;4883582;29;20194;-83
2022/02/22 10:58:43;;;;;;;70.50;9.88;;;9.70;95.40;;;;;;4883604;29;20219;-83
2022/02/22 12:04:30;;;;;;;86.07;9.00;;;9.70;99.90;;;;;;4641211;27;20252;-86
2022/02/22 12:12:20;;;;;;;73.00;8.05;;;9.80;99.90;;;;;;4870769;29;20182;-86
2022/02/22 12:15:06;;;;;;;70.40;6.25;;;9.80;99.90;;;;;;4857503;29;20175;-87
2022/02/22 12:18:13;;;;;;;;;;;;;;;;;;;;;
2022/02/22 12:21:40;;;;;;;;;;;;;;;;;;;;;
2022/02/22 12:24:53;;;;;;;;;;;;;;;;;;;;;
2022/02/22 12:28:02;;;;;;;73.00;11.32;;;9.60;99.90;;;;;;4848474;29;20213;-86
2022/02/22 12:31:23;;;;;;;73.82;6.63;;;9.70;99.90;;;;;;4858162;29;20187;-87
2022/02/22 12:34:34;;;;;;;;;;;;;;;;;;;;;
2022/02/22 12:37:20;;;;;;;;;;;;;;;;;;;;;
2022/02/22 12:40:47;;;;;;;;;;;;;;;;;;;;;
2022/02/22 12:47:18;;;;;;;72.25;7.97;;;9.60;99.90;;;;;;4906850;23;20265;-86
2022/02/22 12:53:47;;;;;;;;;;;;;;;;;;;;;
2022/02/22 12:56:36;;;;;;;82.38;21.83;;;9.60;99.90;;;;;;4855840;29;20282;-86
2022/02/22 13:13:24;;;;;;;92.45;49.38;;;9.00;99.90;;;;;;4829209;29;20369;-86
2022/02/22 13:15:53;;;;;;;106.60;91.60;;;9.00;99.90;;;;;;4860748;29;20191;-85
2022/02/22 13:18:23;;;;;;;97.60;84.35;;;9.10;99.90;;;;;;4924496;29;20185;-85
2022/02/22 13:20:50;;;;;;;179.27;165.45;;;9.10;99.90;;;;;;4924861;29;20150;-85
2022/02/22 13:23:33;;;;;;;146.85;133.25;;;9.10;99.90;;;;;;4925313;29;20193;-86
2022/02/22 13:25:59;;;;;;;117.30;103.05;;;9.10;99.90;;;;;;4925873;29;20196;-86
2022/02/22 13:28:41;;;;;;;130.73;117.95;;;9.10;99.90;;;;;;4926378;29;20177;-86
2022/02/22 13:31:27;;;;;;;150.00;137.25;;;9.00;99.90;;;;;;4926073;29;20185;-86
2022/02/22 13:34:02;;;;;;;138.15;126.13;;;8.90;99.90;;;;;;4926395;29;20546;-86
2022/02/22 13:36:28;;;;;;;103.60;86.03;;;8.90;99.90;;;;;;4926288;29;20197;-86
2022/02/22 13:39:18;;;;;;;93.63;68.20;;;8.70;99.90;;;;;;4924869;29;20228;-86
2022/02/22 13:41:45;;;;;;;82.05;40.55;;;8.80;99.90;;;;;;4924590;29;20398;-86
2022/02/22 13:44:14;;;;;;;81.72;43.92;;;8.80;99.90;;;;;;4925287;29;20166;-86
2022/02/22 13:46:43;;;;;;;79.85;37.28;;;8.80;99.90;;;;;;4924740;29;20272;-86
2022/02/22 13:49:16;;;;;;;79.78;39.47;;;8.80;99.90;;;;;;4925420;29;20168;-86
2022/02/22 13:51:49;;;;;;;83.40;45.75;;;8.80;99.90;;;;;;4924992;29;20483;-86
2022/02/22 13:54:48;;;;;;;85.35;39.13;;;8.80;99.90;;;;;;4924708;29;20162;-86
2022/02/22 13:57:15;;;;;;;83.00;40.58;;;8.70;99.90;;;;;;4922326;29;20223;-86
2022/02/22 13:59:45;;;;;;;86.75;38.10;;;8.80;99.90;;;;;;4926752;29;20228;-86
2022/02/22 14:02:23;;;;;;;89.93;49.42;;;8.70;99.90;;;;;;4926255;29;20170;-86
2022/02/22 14:04:53;;;;;;;149.88;135.10;;;8.70;99.90;;;;;;4925266;29;20213;-86
2022/02/22 14:07:28;;;;;;;79.85;42.45;;;8.60;99.90;;;;;;4924479;29;20197;-86
2022/02/22 14:09:57;;;;;;;84.10;48.28;;;8.60;99.90;;;;;;4924099;29;20153;-85
2022/02/22 14:12:24;;;;;;;84.60;49.53;;;8.60;99.90;;;;;;4921268;29;20188;-85
2022/02/22 14:14:53;;;;;;;100.60;82.07;;;8.70;99.90;;;;;;4922492;29;20177;-86
2022/02/22 14:17:21;;;;;;;90.05;67.50;;;8.70;99.90;;;;;;4923856;29;20197;-85
2022/02/22 14:19:47;;;;;;;106.70;92.50;;;8.80;99.90;;;;;;4922979;29;20169;-85
2022/02/22 14:22:13;;;;;;;96.70;82.57;;;8.80;99.90;;;;;;4920658;29;20247;-86
2022/02/22 14:25:02;;;;;;;97.80;80.75;;;9.00;99.90;;;;;;4922167;29;20402;-86
2022/02/22 14:27:30;;;;;;;97.28;73.57;;;9.00;99.90;;;;;;4921772;29;20708;-86
2022/02/22 14:29:59;;;;;;;115.35;103.43;;;9.10;99.90;;;;;;4922201;29;20181;-86
2022/02/22 14:32:25;;;;;;;87.75;61.30;;;9.10;99.90;;;;;;4920786;29;20232;-86
2022/02/22 14:34:59;;;;;;;84.37;50.97;;;9.20;99.90;;;;;;4920872;29;20173;-86
2022/02/22 14:37:28;;;;;;;81.28;36.92;;;9.20;99.90;;;;;;4922072;29;20459;-86
2022/02/22 14:39:57;;;;;;;81.32;42.17;;;9.30;99.90;;;;;;4920427;29;20170;-86
2022/02/22 14:42:52;;;;;;;87.45;56.47;;;9.30;99.90;;;;;;4921794;29;20165;-86
2022/02/22 14:45:24;;;;;;;85.20;52.50;;;9.30;99.90;;;;;;4920740;29;20193;-86
2022/02/22 14:47:55;;;;;;;84.25;46.15;;;9.30;99.90;;;;;;4921358;29;20161;-86
2022/02/22 14:50:21;;;;;;;79.22;36.22;;;9.40;99.90;;;;;;4921418;29;20231;-86